sensor_id;sensor_type;location;lat;lon;timestamp;P1;durP1;ratioP1;P2;durP2;ratioP2
27670;SDS011;15077;49.704;9.908;2023-02-14T00:00:18;24.48;;;11.85;;
27670;SDS011;15077;49.704;9.908;2023-02-14T00:02:46;25.50;;;10.52;;
27670;SDS011;15077;49.704;9.908;2023-02-14T00:05:13;15.25;;;7.45;;
27670;SDS011;15077;49.704;9.908;2023-02-14T00:07:39;15.48;;;7.75;;
27670;SDS011;15077;49.704;9.908;2023-02-14T00:10:06;12.70;;;6.53;;
27670;SDS011;15077;49.704;9.908;2023-02-14T00:12:33;28.55;;;14.05;;
27670;SDS011;15077;49.704;9.908;2023-02-14T00:14:59;29.80;;;15.32;;
27670;SDS011;15077;49.704;9.908;2023-02-14T00:17:43;17.63;;;8.77;;
27670;SDS011;15077;49.704;9.908;2023-02-14T00:20:09;21.38;;;10.07;;
27670;SDS011;15077;49.704;9.908;2023-02-14T00:22:35;33.63;;;14.63;;
27670;SDS011;15077;49.704;9.908;2023-02-14T00:25:01;60.30;;;15.35;;
27670;SDS011;15077;49.704;9.908;2023-02-14T00:27:27;31.02;;;13.18;;
27670;SDS011;15077;49.704;9.908;2023-02-14T00:29:52;28.13;;;11.93;;
27670;SDS011;15077;49.704;9.908;2023-02-14T00:32:20;15.13;;;7.20;;
27670;SDS011;15077;49.704;9.908;2023-02-14T00:34:46;22.60;;;10.80;;
27670;SDS011;15077;49.704;9.908;2023-02-14T00:37:11;30.35;;;16.40;;
27670;SDS011;15077;49.704;9.908;2023-02-14T00:39:37;33.10;;;16.33;;
27670;SDS011;15077;49.704;9.908;2023-02-14T00:42:03;34.47;;;15.15;;
27670;SDS011;15077;49.704;9.908;2023-02-14T00:44:28;26.65;;;13.90;;
27670;SDS011;15077;49.704;9.908;2023-02-14T00:46:54;31.88;;;14.93;;
27670;SDS011;15077;49.704;9.908;2023-02-14T00:49:20;24.83;;;12.25;;
27670;SDS011;15077;49.704;9.908;2023-02-14T00:51:46;29.02;;;15.18;;
27670;SDS011;15077;49.704;9.908;2023-02-14T00:54:11;23.90;;;13.38;;
27670;SDS011;15077;49.704;9.908;2023-02-14T00:56:37;34.67;;;15.45;;
27670;SDS011;15077;49.704;9.908;2023-02-14T00:59:03;30.63;;;14.55;;
27670;SDS011;15077;49.704;9.908;2023-02-14T01:01:29;35.47;;;14.65;;
27670;SDS011;15077;49.704;9.908;2023-02-14T01:03:55;24.35;;;13.07;;
27670;SDS011;15077;49.704;9.908;2023-02-14T01:06:22;19.63;;;10.52;;
27670;SDS011;15077;49.704;9.908;2023-02-14T01:08:49;34.67;;;15.98;;
27670;SDS011;15077;49.704;9.908;2023-02-14T01:11:18;31.67;;;13.63;;
27670;SDS011;15077;49.704;9.908;2023-02-14T01:13:47;27.42;;;13.50;;
27670;SDS011;15077;49.704;9.908;2023-02-14T01:16:15;22.45;;;11.65;;
27670;SDS011;15077;49.704;9.908;2023-02-14T01:18:45;17.75;;;8.80;;
27670;SDS011;15077;49.704;9.908;2023-02-14T01:21:16;23.77;;;10.82;;
27670;SDS011;15077;49.704;9.908;2023-02-14T01:23:47;27.02;;;12.02;;
27670;SDS011;15077;49.704;9.908;2023-02-14T01:26:17;28.73;;;13.50;;
27670;SDS011;15077;49.704;9.908;2023-02-14T01:28:45;29.20;;;14.88;;
27670;SDS011;15077;49.704;9.908;2023-02-14T01:31:13;31.67;;;14.93;;
27670;SDS011;15077;49.704;9.908;2023-02-14T01:33:52;24.50;;;11.35;;
27670;SDS011;15077;49.704;9.908;2023-02-14T01:36:20;15.23;;;7.40;;
27670;SDS011;15077;49.704;9.908;2023-02-14T01:38:56;21.67;;;10.55;;
27670;SDS011;15077;49.704;9.908;2023-02-14T01:41:27;18.63;;;9.55;;
27670;SDS011;15077;49.704;9.908;2023-02-14T01:44:01;19.63;;;10.40;;
27670;SDS011;15077;49.704;9.908;2023-02-14T01:46:35;27.35;;;11.93;;
27670;SDS011;15077;49.704;9.908;2023-02-14T01:51:31;25.35;;;10.50;;
27670;SDS011;15077;49.704;9.908;2023-02-14T01:54:01;24.48;;;11.80;;
27670;SDS011;15077;49.704;9.908;2023-02-14T01:56:33;30.98;;;14.82;;
27670;SDS011;15077;49.704;9.908;2023-02-14T01:59:05;26.13;;;12.50;;
27670;SDS011;15077;49.704;9.908;2023-02-14T02:01:37;17.98;;;9.30;;
27670;SDS011;15077;49.704;9.908;2023-02-14T02:04:09;24.30;;;11.10;;
27670;SDS011;15077;49.704;9.908;2023-02-14T02:06:46;19.42;;;9.25;;
27670;SDS011;15077;49.704;9.908;2023-02-14T02:09:25;26.80;;;12.95;;
27670;SDS011;15077;49.704;9.908;2023-02-14T02:12:16;18.98;;;9.70;;
27670;SDS011;15077;49.704;9.908;2023-02-14T02:14:43;22.50;;;10.48;;
27670;SDS011;15077;49.704;9.908;2023-02-14T02:35:03;28.42;;;14.45;;
27670;SDS011;15077;49.704;9.908;2023-02-14T02:46:20;20.80;;;9.60;;
27670;SDS011;15077;49.704;9.908;2023-02-14T02:49:19;35.13;;;15.98;;
27670;SDS011;15077;49.704;9.908;2023-02-14T02:52:35;24.67;;;12.38;;
27670;SDS011;15077;49.704;9.908;2023-02-14T02:58:38;31.63;;;15.85;;
27670;SDS011;15077;49.704;9.908;2023-02-14T03:01:42;31.70;;;15.25;;
27670;SDS011;15077;49.704;9.908;2023-02-14T03:04:14;24.23;;;12.15;;
27670;SDS011;15077;49.704;9.908;2023-02-14T03:07:02;19.70;;;10.43;;
27670;SDS011;15077;49.704;9.908;2023-02-14T03:15:07;32.10;;;15.90;;
27670;SDS011;15077;49.704;9.908;2023-02-14T03:17:58;29.08;;;14.20;;
27670;SDS011;15077;49.704;9.908;2023-02-14T03:20:57;33.55;;;14.27;;
27670;SDS011;15077;49.704;9.908;2023-02-14T03:24:02;29.52;;;14.73;;
27670;SDS011;15077;49.704;9.908;2023-02-14T03:26:45;28.65;;;15.70;;
27670;SDS011;15077;49.704;9.908;2023-02-14T03:34:57;33.28;;;14.40;;
27670;SDS011;15077;49.704;9.908;2023-02-14T03:37:48;48.15;;;21.73;;
27670;SDS011;15077;49.704;9.908;2023-02-14T03:40:27;43.80;;;20.20;;
27670;SDS011;15077;49.704;9.908;2023-02-14T03:45:51;39.08;;;18.90;;
27670;SDS011;15077;49.704;9.908;2023-02-14T03:48:32;37.05;;;18.65;;
27670;SDS011;15077;49.704;9.908;2023-02-14T03:51:03;35.67;;;16.17;;
27670;SDS011;15077;49.704;9.908;2023-02-14T03:53:35;30.73;;;14.98;;
27670;SDS011;15077;49.704;9.908;2023-02-14T03:56:13;23.13;;;10.70;;
27670;SDS011;15077;49.704;9.908;2023-02-14T03:58:52;20.63;;;11.70;;
27670;SDS011;15077;49.704;9.908;2023-02-14T04:01:35;18.77;;;9.40;;
27670;SDS011;15077;49.704;9.908;2023-02-14T04:04:16;18.83;;;9.63;;
27670;SDS011;15077;49.704;9.908;2023-02-14T04:06:46;27.50;;;14.05;;
27670;SDS011;15077;49.704;9.908;2023-02-14T04:09:12;23.25;;;11.60;;
27670;SDS011;15077;49.704;9.908;2023-02-14T04:11:40;21.58;;;10.00;;
27670;SDS011;15077;49.704;9.908;2023-02-14T04:14:07;24.90;;;13.63;;
27670;SDS011;15077;49.704;9.908;2023-02-14T04:16:34;22.30;;;11.52;;
27670;SDS011;15077;49.704;9.908;2023-02-14T04:19:20;22.65;;;11.93;;
27670;SDS011;15077;49.704;9.908;2023-02-14T04:21:48;19.52;;;10.50;;
27670;SDS011;15077;49.704;9.908;2023-02-14T04:24:15;20.95;;;10.02;;
27670;SDS011;15077;49.704;9.908;2023-02-14T04:26:41;21.83;;;11.23;;
27670;SDS011;15077;49.704;9.908;2023-02-14T04:29:21;32.03;;;15.85;;
27670;SDS011;15077;49.704;9.908;2023-02-14T04:31:47;24.58;;;11.60;;
27670;SDS011;15077;49.704;9.908;2023-02-14T04:34:13;26.38;;;13.30;;
27670;SDS011;15077;49.704;9.908;2023-02-14T04:36:39;25.17;;;13.40;;
27670;SDS011;15077;49.704;9.908;2023-02-14T04:39:05;20.92;;;10.88;;
27670;SDS011;15077;49.704;9.908;2023-02-14T04:41:32;28.23;;;13.50;;
27670;SDS011;15077;49.704;9.908;2023-02-14T04:43:58;26.73;;;14.57;;
27670;SDS011;15077;49.704;9.908;2023-02-14T04:46:23;21.88;;;11.25;;
27670;SDS011;15077;49.704;9.908;2023-02-14T04:48:49;26.67;;;12.15;;
27670;SDS011;15077;49.704;9.908;2023-02-14T04:51:15;26.17;;;13.13;;
27670;SDS011;15077;49.704;9.908;2023-02-14T04:53:41;23.42;;;12.55;;
27670;SDS011;15077;49.704;9.908;2023-02-14T04:56:07;26.95;;;14.25;;
27670;SDS011;15077;49.704;9.908;2023-02-14T04:58:33;23.63;;;12.10;;
27670;SDS011;15077;49.704;9.908;2023-02-14T05:00:59;25.13;;;14.02;;
27670;SDS011;15077;49.704;9.908;2023-02-14T05:03:25;30.75;;;17.27;;
27670;SDS011;15077;49.704;9.908;2023-02-14T05:05:51;33.03;;;17.13;;
27670;SDS011;15077;49.704;9.908;2023-02-14T05:08:17;35.53;;;17.15;;
27670;SDS011;15077;49.704;9.908;2023-02-14T05:10:43;30.25;;;15.73;;
27670;SDS011;15077;49.704;9.908;2023-02-14T05:13:08;33.60;;;16.27;;
27670;SDS011;15077;49.704;9.908;2023-02-14T05:15:34;23.75;;;12.48;;
27670;SDS011;15077;49.704;9.908;2023-02-14T05:18:00;24.63;;;12.95;;
27670;SDS011;15077;49.704;9.908;2023-02-14T05:20:27;28.63;;;13.82;;
27670;SDS011;15077;49.704;9.908;2023-02-14T05:22:53;32.20;;;16.20;;
27670;SDS011;15077;49.704;9.908;2023-02-14T05:25:19;26.83;;;14.63;;
27670;SDS011;15077;49.704;9.908;2023-02-14T05:27:45;31.90;;;13.80;;
27670;SDS011;15077;49.704;9.908;2023-02-14T05:30:10;29.95;;;14.73;;
27670;SDS011;15077;49.704;9.908;2023-02-14T05:32:37;27.52;;;14.60;;
27670;SDS011;15077;49.704;9.908;2023-02-14T05:35:03;25.75;;;12.85;;
27670;SDS011;15077;49.704;9.908;2023-02-14T05:37:29;30.10;;;16.15;;
27670;SDS011;15077;49.704;9.908;2023-02-14T05:39:55;30.42;;;15.43;;
27670;SDS011;15077;49.704;9.908;2023-02-14T05:42:21;29.75;;;14.43;;
27670;SDS011;15077;49.704;9.908;2023-02-14T05:44:46;23.85;;;11.85;;
27670;SDS011;15077;49.704;9.908;2023-02-14T05:47:12;22.48;;;10.25;;
27670;SDS011;15077;49.704;9.908;2023-02-14T05:49:39;22.50;;;12.30;;
27670;SDS011;15077;49.704;9.908;2023-02-14T05:52:05;28.98;;;15.65;;
27670;SDS011;15077;49.704;9.908;2023-02-14T05:54:30;33.22;;;15.77;;
27670;SDS011;15077;49.704;9.908;2023-02-14T05:56:56;35.22;;;17.25;;
27670;SDS011;15077;49.704;9.908;2023-02-14T05:59:22;36.88;;;17.95;;
27670;SDS011;15077;49.704;9.908;2023-02-14T06:01:48;30.52;;;15.20;;
27670;SDS011;15077;49.704;9.908;2023-02-14T06:04:13;28.30;;;14.48;;
27670;SDS011;15077;49.704;9.908;2023-02-14T06:06:39;24.83;;;12.40;;
27670;SDS011;15077;49.704;9.908;2023-02-14T06:09:05;23.08;;;11.57;;
27670;SDS011;15077;49.704;9.908;2023-02-14T06:11:30;21.98;;;10.27;;
27670;SDS011;15077;49.704;9.908;2023-02-14T06:13:56;21.52;;;11.25;;
27670;SDS011;15077;49.704;9.908;2023-02-14T06:16:22;31.02;;;14.23;;
27670;SDS011;15077;49.704;9.908;2023-02-14T06:18:47;32.35;;;16.98;;
27670;SDS011;15077;49.704;9.908;2023-02-14T06:21:13;35.47;;;16.33;;
27670;SDS011;15077;49.704;9.908;2023-02-14T06:23:39;35.53;;;17.98;;
27670;SDS011;15077;49.704;9.908;2023-02-14T06:26:04;33.55;;;16.55;;
27670;SDS011;15077;49.704;9.908;2023-02-14T06:28:30;29.15;;;15.45;;
27670;SDS011;15077;49.704;9.908;2023-02-14T06:30:56;28.02;;;13.70;;
27670;SDS011;15077;49.704;9.908;2023-02-14T06:33:22;24.65;;;11.23;;
27670;SDS011;15077;49.704;9.908;2023-02-14T06:35:47;30.52;;;14.10;;
27670;SDS011;15077;49.704;9.908;2023-02-14T06:38:13;27.85;;;14.55;;
27670;SDS011;15077;49.704;9.908;2023-02-14T06:40:39;35.38;;;15.95;;
27670;SDS011;15077;49.704;9.908;2023-02-14T06:43:04;35.42;;;16.55;;
27670;SDS011;15077;49.704;9.908;2023-02-14T06:45:30;37.17;;;18.90;;
27670;SDS011;15077;49.704;9.908;2023-02-14T06:47:56;44.38;;;19.75;;
27670;SDS011;15077;49.704;9.908;2023-02-14T06:50:22;31.83;;;15.82;;
27670;SDS011;15077;49.704;9.908;2023-02-14T06:52:47;40.70;;;17.23;;
27670;SDS011;15077;49.704;9.908;2023-02-14T06:55:15;32.35;;;16.92;;
27670;SDS011;15077;49.704;9.908;2023-02-14T06:57:41;25.98;;;12.60;;
27670;SDS011;15077;49.704;9.908;2023-02-14T07:00:07;17.88;;;9.52;;
27670;SDS011;15077;49.704;9.908;2023-02-14T07:02:36;24.73;;;12.77;;
27670;SDS011;15077;49.704;9.908;2023-02-14T07:05:02;20.70;;;9.73;;
27670;SDS011;15077;49.704;9.908;2023-02-14T07:07:28;19.15;;;9.85;;
27670;SDS011;15077;49.704;9.908;2023-02-14T07:09:54;21.80;;;10.90;;
27670;SDS011;15077;49.704;9.908;2023-02-14T07:12:19;26.27;;;13.50;;
27670;SDS011;15077;49.704;9.908;2023-02-14T07:14:45;30.20;;;15.73;;
27670;SDS011;15077;49.704;9.908;2023-02-14T07:17:11;23.95;;;13.68;;
27670;SDS011;15077;49.704;9.908;2023-02-14T07:19:36;26.85;;;13.82;;
27670;SDS011;15077;49.704;9.908;2023-02-14T07:22:02;27.08;;;14.23;;
27670;SDS011;15077;49.704;9.908;2023-02-14T07:24:28;28.33;;;14.07;;
27670;SDS011;15077;49.704;9.908;2023-02-14T07:26:53;26.90;;;13.15;;
27670;SDS011;15077;49.704;9.908;2023-02-14T07:29:19;32.53;;;16.17;;
27670;SDS011;15077;49.704;9.908;2023-02-14T07:31:45;37.47;;;16.85;;
27670;SDS011;15077;49.704;9.908;2023-02-14T07:34:10;30.23;;;15.65;;
27670;SDS011;15077;49.704;9.908;2023-02-14T07:36:37;31.25;;;16.52;;
27670;SDS011;15077;49.704;9.908;2023-02-14T07:39:03;59.45;;;17.77;;
27670;SDS011;15077;49.704;9.908;2023-02-14T07:41:29;21.98;;;10.98;;
27670;SDS011;15077;49.704;9.908;2023-02-14T07:43:55;34.13;;;15.88;;
27670;SDS011;15077;49.704;9.908;2023-02-14T07:46:21;36.60;;;16.70;;
27670;SDS011;15077;49.704;9.908;2023-02-14T07:48:46;44.03;;;20.38;;
27670;SDS011;15077;49.704;9.908;2023-02-14T07:51:12;37.03;;;17.48;;
27670;SDS011;15077;49.704;9.908;2023-02-14T07:53:38;31.23;;;17.13;;
27670;SDS011;15077;49.704;9.908;2023-02-14T07:56:05;35.63;;;17.95;;
27670;SDS011;15077;49.704;9.908;2023-02-14T07:58:31;33.15;;;16.02;;
27670;SDS011;15077;49.704;9.908;2023-02-14T08:00:56;32.78;;;15.60;;
27670;SDS011;15077;49.704;9.908;2023-02-14T08:03:22;30.27;;;16.00;;
27670;SDS011;15077;49.704;9.908;2023-02-14T08:05:48;29.90;;;14.57;;
27670;SDS011;15077;49.704;9.908;2023-02-14T08:08:21;30.60;;;15.93;;
27670;SDS011;15077;49.704;9.908;2023-02-14T08:10:55;36.15;;;17.85;;
27670;SDS011;15077;49.704;9.908;2023-02-14T08:13:21;31.38;;;16.95;;
27670;SDS011;15077;49.704;9.908;2023-02-14T08:15:47;31.73;;;16.65;;
27670;SDS011;15077;49.704;9.908;2023-02-14T08:18:40;32.35;;;17.27;;
27670;SDS011;15077;49.704;9.908;2023-02-14T08:21:07;35.97;;;18.40;;
27670;SDS011;15077;49.704;9.908;2023-02-14T08:23:35;37.67;;;18.92;;
27670;SDS011;15077;49.704;9.908;2023-02-14T08:26:02;37.45;;;18.25;;
27670;SDS011;15077;49.704;9.908;2023-02-14T08:28:28;34.72;;;17.45;;
27670;SDS011;15077;49.704;9.908;2023-02-14T08:30:56;28.35;;;13.38;;
27670;SDS011;15077;49.704;9.908;2023-02-14T08:33:21;28.25;;;14.70;;
27670;SDS011;15077;49.704;9.908;2023-02-14T08:35:47;32.25;;;16.48;;
27670;SDS011;15077;49.704;9.908;2023-02-14T08:38:15;53.13;;;20.52;;
27670;SDS011;15077;49.704;9.908;2023-02-14T08:40:40;37.67;;;17.83;;
27670;SDS011;15077;49.704;9.908;2023-02-14T08:43:08;44.50;;;18.30;;
27670;SDS011;15077;49.704;9.908;2023-02-14T08:45:35;36.03;;;18.95;;
27670;SDS011;15077;49.704;9.908;2023-02-14T08:48:05;40.50;;;18.65;;
27670;SDS011;15077;49.704;9.908;2023-02-14T08:50:34;37.38;;;19.05;;
27670;SDS011;15077;49.704;9.908;2023-02-14T08:53:06;32.75;;;16.80;;
27670;SDS011;15077;49.704;9.908;2023-02-14T08:55:34;23.70;;;12.40;;
27670;SDS011;15077;49.704;9.908;2023-02-14T08:58:01;37.17;;;18.55;;
27670;SDS011;15077;49.704;9.908;2023-02-14T09:00:28;57.72;;;19.60;;
27670;SDS011;15077;49.704;9.908;2023-02-14T09:02:54;39.80;;;19.00;;
27670;SDS011;15077;49.704;9.908;2023-02-14T09:05:20;33.17;;;17.58;;
27670;SDS011;15077;49.704;9.908;2023-02-14T09:07:47;41.85;;;21.33;;
27670;SDS011;15077;49.704;9.908;2023-02-14T09:10:13;39.25;;;18.83;;
27670;SDS011;15077;49.704;9.908;2023-02-14T09:12:41;39.05;;;19.58;;
27670;SDS011;15077;49.704;9.908;2023-02-14T09:15:07;38.00;;;19.92;;
27670;SDS011;15077;49.704;9.908;2023-02-14T09:17:34;34.13;;;17.55;;
27670;SDS011;15077;49.704;9.908;2023-02-14T09:20:02;34.80;;;18.05;;
27670;SDS011;15077;49.704;9.908;2023-02-14T09:22:31;33.70;;;16.83;;
27670;SDS011;15077;49.704;9.908;2023-02-14T09:24:58;37.08;;;18.35;;
27670;SDS011;15077;49.704;9.908;2023-02-14T09:27:24;33.13;;;17.90;;
27670;SDS011;15077;49.704;9.908;2023-02-14T09:29:50;33.13;;;17.65;;
27670;SDS011;15077;49.704;9.908;2023-02-14T09:32:16;30.15;;;16.77;;
27670;SDS011;15077;49.704;9.908;2023-02-14T09:34:42;31.98;;;17.42;;
27670;SDS011;15077;49.704;9.908;2023-02-14T09:37:09;31.42;;;16.42;;
27670;SDS011;15077;49.704;9.908;2023-02-14T09:39:54;36.17;;;18.40;;
27670;SDS011;15077;49.704;9.908;2023-02-14T09:45:14;34.83;;;18.45;;
27670;SDS011;15077;49.704;9.908;2023-02-14T09:50:41;39.97;;;20.30;;
27670;SDS011;15077;49.704;9.908;2023-02-14T09:53:18;43.50;;;20.85;;
27670;SDS011;15077;49.704;9.908;2023-02-14T10:01:25;39.03;;;19.45;;
27670;SDS011;15077;49.704;9.908;2023-02-14T10:09:54;37.38;;;19.23;;
27670;SDS011;15077;49.704;9.908;2023-02-14T10:12:32;43.50;;;21.98;;
27670;SDS011;15077;49.704;9.908;2023-02-14T10:15:06;45.03;;;21.38;;
27670;SDS011;15077;49.704;9.908;2023-02-14T10:20:45;23.42;;;11.65;;
27670;SDS011;15077;49.704;9.908;2023-02-14T10:23:22;18.25;;;8.77;;
27670;SDS011;15077;49.704;9.908;2023-02-14T10:26:23;27.10;;;14.70;;
27670;SDS011;15077;49.704;9.908;2023-02-14T10:29:09;33.70;;;18.75;;
27670;SDS011;15077;49.704;9.908;2023-02-14T10:32:01;37.17;;;19.70;;
27670;SDS011;15077;49.704;9.908;2023-02-14T10:34:32;32.85;;;18.23;;
27670;SDS011;15077;49.704;9.908;2023-02-14T10:48:52;31.05;;;15.32;;
27670;SDS011;15077;49.704;9.908;2023-02-14T10:51:31;27.95;;;13.43;;
27670;SDS011;15077;49.704;9.908;2023-02-14T10:54:42;25.55;;;13.15;;
27670;SDS011;15077;49.704;9.908;2023-02-14T10:57:33;28.90;;;13.52;;
27670;SDS011;15077;49.704;9.908;2023-02-14T11:02:45;29.70;;;14.90;;
27670;SDS011;15077;49.704;9.908;2023-02-14T11:08:24;27.05;;;13.65;;
27670;SDS011;15077;49.704;9.908;2023-02-14T11:11:01;35.38;;;18.45;;
27670;SDS011;15077;49.704;9.908;2023-02-14T11:13:35;34.35;;;17.38;;
27670;SDS011;15077;49.704;9.908;2023-02-14T11:16:05;38.45;;;20.20;;
27670;SDS011;15077;49.704;9.908;2023-02-14T11:18:34;31.65;;;16.33;;
27670;SDS011;15077;49.704;9.908;2023-02-14T11:21:05;38.42;;;18.45;;
27670;SDS011;15077;49.704;9.908;2023-02-14T11:23:45;40.70;;;19.40;;
27670;SDS011;15077;49.704;9.908;2023-02-14T11:28:51;32.20;;;15.73;;
27670;SDS011;15077;49.704;9.908;2023-02-14T11:31:27;33.40;;;15.93;;
27670;SDS011;15077;49.704;9.908;2023-02-14T11:33:57;35.53;;;16.55;;
27670;SDS011;15077;49.704;9.908;2023-02-14T11:36:24;27.90;;;13.75;;
27670;SDS011;15077;49.704;9.908;2023-02-14T11:38:57;29.98;;;15.55;;
27670;SDS011;15077;49.704;9.908;2023-02-14T11:41:50;36.80;;;18.80;;
27670;SDS011;15077;49.704;9.908;2023-02-14T11:44:25;32.30;;;16.92;;
27670;SDS011;15077;49.704;9.908;2023-02-14T11:46:54;38.58;;;18.70;;
27670;SDS011;15077;49.704;9.908;2023-02-14T11:49:39;38.95;;;20.55;;
27670;SDS011;15077;49.704;9.908;2023-02-14T11:52:09;32.35;;;18.40;;
27670;SDS011;15077;49.704;9.908;2023-02-14T11:54:41;33.40;;;16.95;;
27670;SDS011;15077;49.704;9.908;2023-02-14T11:59:57;34.90;;;17.83;;
27670;SDS011;15077;49.704;9.908;2023-02-14T12:02:38;41.13;;;19.00;;
27670;SDS011;15077;49.704;9.908;2023-02-14T12:07:46;26.20;;;13.82;;
27670;SDS011;15077;49.704;9.908;2023-02-14T12:12:53;33.95;;;17.52;;
27670;SDS011;15077;49.704;9.908;2023-02-14T12:32:49;28.42;;;15.60;;
27670;SDS011;15077;49.704;9.908;2023-02-14T12:44:04;34.80;;;18.80;;
27670;SDS011;15077;49.704;9.908;2023-02-14T12:53:35;26.05;;;13.50;;
27670;SDS011;15077;49.704;9.908;2023-02-14T12:56:28;33.30;;;16.88;;
27670;SDS011;15077;49.704;9.908;2023-02-14T13:05:33;32.10;;;17.05;;
27670;SDS011;15077;49.704;9.908;2023-02-14T13:11:38;32.17;;;16.33;;
27670;SDS011;15077;49.704;9.908;2023-02-14T13:14:10;30.67;;;17.08;;
27670;SDS011;15077;49.704;9.908;2023-02-14T13:23:17;22.27;;;12.02;;
27670;SDS011;15077;49.704;9.908;2023-02-14T13:28:49;26.98;;;14.32;;
27670;SDS011;15077;49.704;9.908;2023-02-14T13:31:41;22.65;;;11.93;;
27670;SDS011;15077;49.704;9.908;2023-02-14T13:34:18;27.67;;;15.13;;
27670;SDS011;15077;49.704;9.908;2023-02-14T13:36:54;27.75;;;15.00;;
27670;SDS011;15077;49.704;9.908;2023-02-14T13:39:36;24.23;;;13.15;;
27670;SDS011;15077;49.704;9.908;2023-02-14T13:42:10;21.17;;;11.77;;
27670;SDS011;15077;49.704;9.908;2023-02-14T13:49:50;24.48;;;14.02;;
27670;SDS011;15077;49.704;9.908;2023-02-14T13:55:15;26.85;;;14.55;;
27670;SDS011;15077;49.704;9.908;2023-02-14T13:58:05;22.70;;;12.73;;
27670;SDS011;15077;49.704;9.908;2023-02-14T14:00:43;24.17;;;14.35;;
27670;SDS011;15077;49.704;9.908;2023-02-14T14:04:00;23.53;;;13.30;;
27670;SDS011;15077;49.704;9.908;2023-02-14T14:06:09;26.00;;;13.90;;
27670;SDS011;15077;49.704;9.908;2023-02-14T14:08:37;26.50;;;15.00;;
27670;SDS011;15077;49.704;9.908;2023-02-14T14:11:48;29.23;;;14.82;;
27670;SDS011;15077;49.704;9.908;2023-02-14T14:17:00;28.95;;;15.98;;
27670;SDS011;15077;49.704;9.908;2023-02-14T14:19:41;28.88;;;16.10;;
27670;SDS011;15077;49.704;9.908;2023-02-14T14:22:08;30.70;;;17.88;;
27670;SDS011;15077;49.704;9.908;2023-02-14T14:24:39;28.00;;;15.18;;
27670;SDS011;15077;49.704;9.908;2023-02-14T14:27:17;28.05;;;15.35;;
27670;SDS011;15077;49.704;9.908;2023-02-14T14:30:22;25.05;;;13.23;;
27670;SDS011;15077;49.704;9.908;2023-02-14T14:32:55;27.60;;;14.55;;
27670;SDS011;15077;49.704;9.908;2023-02-14T14:35:36;21.08;;;11.80;;
27670;SDS011;15077;49.704;9.908;2023-02-14T14:38:02;26.52;;;14.30;;
27670;SDS011;15077;49.704;9.908;2023-02-14T14:40:34;25.40;;;14.93;;
27670;SDS011;15077;49.704;9.908;2023-02-14T14:46:00;25.83;;;14.98;;
27670;SDS011;15077;49.704;9.908;2023-02-14T14:48:28;28.98;;;15.88;;
27670;SDS011;15077;49.704;9.908;2023-02-14T14:51:14;31.05;;;17.40;;
27670;SDS011;15077;49.704;9.908;2023-02-14T14:54:02;32.13;;;16.90;;
27670;SDS011;15077;49.704;9.908;2023-02-14T14:56:33;29.27;;;16.13;;
27670;SDS011;15077;49.704;9.908;2023-02-14T14:59:16;31.60;;;18.50;;
27670;SDS011;15077;49.704;9.908;2023-02-14T15:02:21;30.00;;;17.65;;
27670;SDS011;15077;49.704;9.908;2023-02-14T15:04:51;32.17;;;17.08;;
27670;SDS011;15077;49.704;9.908;2023-02-14T15:07:33;29.80;;;16.23;;
27670;SDS011;15077;49.704;9.908;2023-02-14T15:10:00;29.73;;;15.93;;
27670;SDS011;15077;49.704;9.908;2023-02-14T15:12:26;22.83;;;12.68;;
27670;SDS011;15077;49.704;9.908;2023-02-14T15:15:13;24.45;;;13.13;;
27670;SDS011;15077;49.704;9.908;2023-02-14T15:17:42;25.77;;;14.35;;
27670;SDS011;15077;49.704;9.908;2023-02-14T15:20:13;24.85;;;13.27;;
27670;SDS011;15077;49.704;9.908;2023-02-14T15:22:47;31.63;;;17.75;;
27670;SDS011;15077;49.704;9.908;2023-02-14T15:25:19;31.38;;;16.48;;
27670;SDS011;15077;49.704;9.908;2023-02-14T15:28:00;36.65;;;16.90;;
27670;SDS011;15077;49.704;9.908;2023-02-14T15:30:29;35.25;;;17.92;;
27670;SDS011;15077;49.704;9.908;2023-02-14T15:33:01;31.48;;;16.35;;
27670;SDS011;15077;49.704;9.908;2023-02-14T15:35:30;27.75;;;15.85;;
27670;SDS011;15077;49.704;9.908;2023-02-14T15:38:01;26.05;;;14.20;;
27670;SDS011;15077;49.704;9.908;2023-02-14T15:40:31;24.05;;;13.32;;
27670;SDS011;15077;49.704;9.908;2023-02-14T15:43:10;19.88;;;10.98;;
27670;SDS011;15077;49.704;9.908;2023-02-14T15:45:39;22.38;;;11.68;;
27670;SDS011;15077;49.704;9.908;2023-02-14T15:48:11;19.65;;;9.68;;
27670;SDS011;15077;49.704;9.908;2023-02-14T15:50:45;23.90;;;13.00;;
27670;SDS011;15077;49.704;9.908;2023-02-14T15:54:02;27.52;;;13.88;;
27670;SDS011;15077;49.704;9.908;2023-02-14T15:56:12;28.02;;;16.63;;
27670;SDS011;15077;49.704;9.908;2023-02-14T15:58:48;28.77;;;14.13;;
27670;SDS011;15077;49.704;9.908;2023-02-14T16:01:56;28.63;;;15.68;;
27670;SDS011;15077;49.704;9.908;2023-02-14T16:07:25;24.45;;;12.88;;
27670;SDS011;15077;49.704;9.908;2023-02-14T16:10:13;24.95;;;13.48;;
27670;SDS011;15077;49.704;9.908;2023-02-14T16:12:59;34.03;;;16.38;;
27670;SDS011;15077;49.704;9.908;2023-02-14T16:15:39;30.75;;;15.07;;
27670;SDS011;15077;49.704;9.908;2023-02-14T16:18:42;20.45;;;10.88;;
27670;SDS011;15077;49.704;9.908;2023-02-14T16:26:41;20.02;;;11.38;;
27670;SDS011;15077;49.704;9.908;2023-02-14T16:29:15;33.05;;;16.75;;
27670;SDS011;15077;49.704;9.908;2023-02-14T16:31:47;29.60;;;17.25;;
27670;SDS011;15077;49.704;9.908;2023-02-14T16:34:17;35.80;;;18.42;;
27670;SDS011;15077;49.704;9.908;2023-02-14T16:36:43;29.92;;;15.27;;
27670;SDS011;15077;49.704;9.908;2023-02-14T16:39:16;33.35;;;16.23;;
27670;SDS011;15077;49.704;9.908;2023-02-14T16:41:47;30.02;;;15.88;;
27670;SDS011;15077;49.704;9.908;2023-02-14T16:44:15;31.60;;;16.75;;
27670;SDS011;15077;49.704;9.908;2023-02-14T16:46:43;33.92;;;17.65;;
27670;SDS011;15077;49.704;9.908;2023-02-14T16:49:11;34.92;;;19.10;;
27670;SDS011;15077;49.704;9.908;2023-02-14T16:51:38;33.38;;;18.05;;
27670;SDS011;15077;49.704;9.908;2023-02-14T16:54:10;32.70;;;17.10;;
27670;SDS011;15077;49.704;9.908;2023-02-14T16:56:45;32.50;;;16.10;;
27670;SDS011;15077;49.704;9.908;2023-02-14T16:59:23;29.00;;;14.27;;
27670;SDS011;15077;49.704;9.908;2023-02-14T17:01:49;29.55;;;15.75;;
27670;SDS011;15077;49.704;9.908;2023-02-14T17:04:15;26.38;;;14.43;;
27670;SDS011;15077;49.704;9.908;2023-02-14T17:06:42;31.58;;;16.08;;
27670;SDS011;15077;49.704;9.908;2023-02-14T17:09:15;26.80;;;13.50;;
27670;SDS011;15077;49.704;9.908;2023-02-14T17:11:48;32.58;;;16.65;;
27670;SDS011;15077;49.704;9.908;2023-02-14T17:14:19;40.55;;;19.15;;
27670;SDS011;15077;49.704;9.908;2023-02-14T17:16:50;38.50;;;19.60;;
27670;SDS011;15077;49.704;9.908;2023-02-14T17:19:18;34.10;;;16.08;;
27670;SDS011;15077;49.704;9.908;2023-02-14T17:21:43;31.30;;;16.13;;
27670;SDS011;15077;49.704;9.908;2023-02-14T17:24:09;34.63;;;17.42;;
27670;SDS011;15077;49.704;9.908;2023-02-14T17:26:35;37.22;;;19.15;;
27670;SDS011;15077;49.704;9.908;2023-02-14T17:29:02;37.78;;;20.00;;
27670;SDS011;15077;49.704;9.908;2023-02-14T17:31:28;34.47;;;18.92;;
27670;SDS011;15077;49.704;9.908;2023-02-14T17:33:54;34.05;;;17.00;;
27670;SDS011;15077;49.704;9.908;2023-02-14T17:36:19;34.22;;;17.20;;
27670;SDS011;15077;49.704;9.908;2023-02-14T17:38:48;34.72;;;19.35;;